Time;durP1;ratioP1;P1;durP2;ratioP2;P2;SDS_P1;SDS_P2;PMS_P1;PMS_P2;Temp;Humidity;BMP_temperature;BMP_pressure;BME280_temperature;BME280_humidity;BME280_pressure;Samples;Min_cycle;Max_cycle;Signal;HPM_P1;HPM_P2
2023/10/14 00:02:21;;;;;;;8.32;1.35;;;15.40;99.90;;;;;;5053647;28;20039;-91
2023/10/14 00:05:02;;;;;;;8.60;1.83;;;16.30;99.90;;;;;;5052278;28;20045;-92
2023/10/14 00:07:27;;;;;;;;;;;14.60;99.90;;;;;;5053996;28;20021;-92
2023/10/14 00:10:03;;;;;;;10.73;1.98;;;15.00;99.90;;;;;;5052966;28;19908;-93
2023/10/14 00:12:29;;;;;;;4.45;1.30;;;14.70;99.90;;;;;;5053415;28;20071;-91
2023/10/14 00:14:56;;;;;;;12.52;2.08;;;15.20;99.90;;;;;;5052256;28;20029;-90
2023/10/14 00:17:22;;;;;;;13.32;2.38;;;16.00;99.90;;;;;;5053141;28;20035;-92
2023/10/14 00:19:50;;;;;;;6.95;1.75;;;15.70;99.90;;;;;;5052473;28;20116;-91
2023/10/14 00:22:26;;;;;;;10.25;1.60;;;15.80;99.90;;;;;;5053421;28;20056;-90
2023/10/14 00:24:52;;;;;;;4.80;1.70;;;15.50;99.90;;;;;;5052787;28;20539;-91
2023/10/14 00:30:10;;;;;;;7.05;2.00;;;14.50;99.90;;;;;;5022324;28;20061;-91
2023/10/14 00:32:35;;;;;;;7.85;1.92;;;14.50;99.90;;;;;;5053046;28;20036;-90
2023/10/14 00:35:18;;;;;;;8.68;1.73;;;14.90;99.90;;;;;;5057312;28;20048;-90
2023/10/14 00:37:43;;;;;;;9.70;1.85;;;15.40;99.90;;;;;;5053197;28;20036;-91
2023/10/14 00:40:24;;;;;;;6.00;1.80;;;15.20;99.90;;;;;;5052777;28;20033;-91
2023/10/14 00:43:08;;;;;;;10.90;1.83;;;15.70;99.90;;;;;;5052711;28;20021;-90
2023/10/14 00:45:42;;;;;;;11.55;3.38;;;16.00;99.90;;;;;;5052547;28;20380;-90
2023/10/14 00:48:08;;;;;;;10.65;2.38;;;15.40;99.90;;;;;;5051804;28;20112;-90
2023/10/14 00:50:50;;;;;;;14.77;2.30;;;15.70;99.90;;;;;;5052711;28;20068;-91
2023/10/14 00:53:18;;;;;;;15.88;2.25;;;15.70;99.90;;;;;;5052882;28;20099;-91
2023/10/14 00:58:23;;;;;;;11.68;1.63;;;15.10;99.90;;;;;;5055533;28;20021;-90
2023/10/14 01:00:57;;;;;;;12.52;2.05;;;15.60;99.90;;;;;;5048126;28;20033;-91
2023/10/14 01:03:31;;;;;;;4.95;2.10;;;15.50;99.90;;;;;;5056478;28;20377;-89
2023/10/14 01:08:49;;;;;;;15.27;2.65;;;14.20;99.90;;;;;;5056287;28;20079;-92
2023/10/14 01:11:17;;;;;;;17.35;3.03;;;14.20;99.90;;;;;;5056485;28;20025;-91
2023/10/14 01:13:46;;;;;;;14.55;2.88;;;14.90;99.90;;;;;;5055982;28;20025;-90
2023/10/14 01:16:12;;;;;;;8.82;2.17;;;14.10;99.90;;;;;;5056461;28;20031;-91
2023/10/14 01:18:41;;;;;;;11.48;2.75;;;14.60;99.90;;;;;;5056143;28;20448;-91
2023/10/14 01:21:08;;;;;;;10.73;2.27;;;14.20;99.90;;;;;;5056079;28;20049;-92
2023/10/14 01:23:38;;;;;;;13.65;2.35;;;14.20;99.90;;;;;;5056255;28;20108;-92
2023/10/14 01:26:05;;;;;;;18.80;2.92;;;14.20;99.90;;;;;;5056135;28;20037;-91
2023/10/14 01:28:32;;;;;;;13.35;2.50;;;14.30;99.90;;;;;;5054717;28;20029;-91
2023/10/14 01:31:34;;;;;;;9.50;2.40;;;14.20;99.90;;;;;;5057776;28;20081;-91
2023/10/14 01:34:05;;;;;;;6.93;2.10;;;14.20;99.90;;;;;;5074002;28;20523;-91
2023/10/14 01:36:37;;;;;;;;;;;14.20;99.90;;;;;;5063290;28;20029;-91
2023/10/14 01:39:11;;;;;;;12.93;2.35;;;15.00;99.90;;;;;;5041429;28;20272;-90
2023/10/14 01:41:37;;;;;;;12.90;2.45;;;14.10;99.90;;;;;;5035625;28;20096;-90
2023/10/14 01:44:05;;;;;;;11.35;1.98;;;14.10;99.90;;;;;;5035388;28;20163;-90
2023/10/14 01:46:34;;;;;;;10.57;2.63;;;14.10;99.90;;;;;;5049688;28;20041;-90
2023/10/14 01:49:10;;;;;;;15.68;2.33;;;14.00;99.90;;;;;;5055337;28;20033;-90
2023/10/14 01:51:37;;;;;;;20.67;3.42;;;13.90;99.90;;;;;;5055510;28;20029;-89
2023/10/14 01:54:03;;;;;;;12.30;3.10;;;13.80;99.90;;;;;;5055459;28;20029;-91
2023/10/14 01:56:30;;;;;;;12.55;2.80;;;13.70;99.90;;;;;;5054426;28;20025;-91
2023/10/14 01:58:59;;;;;;;8.82;1.90;;;13.70;99.90;;;;;;5055199;28;20031;-91
2023/10/14 02:01:26;;;;;;;9.15;2.22;;;13.60;99.90;;;;;;5055551;28;20536;-91
2023/10/14 02:03:54;;;;;;;8.32;2.17;;;13.50;99.90;;;;;;5054941;28;20029;-90
2023/10/14 02:06:26;;;;;;;15.23;3.22;;;13.40;99.90;;;;;;5054721;28;20039;-92
2023/10/14 02:08:53;;;;;;;10.65;2.15;;;13.40;99.90;;;;;;5055001;28;20059;-90
2023/10/14 02:11:24;;;;;;;16.75;2.85;;;13.40;99.90;;;;;;5055223;28;20025;-91
2023/10/14 02:13:50;;;;;;;12.98;2.83;;;13.50;99.90;;;;;;5055138;28;20029;-92
2023/10/14 02:17:00;;;;;;;7.45;2.40;;;13.40;99.90;;;;;;5055801;28;20052;-91
2023/10/14 02:19:18;;;;;;;12.60;2.55;;;13.40;99.90;;;;;;5082712;22;20056;-93
2023/10/14 02:21:44;;;;;;;11.73;2.78;;;13.30;99.90;;;;;;5076053;28;20052;-91
2023/10/14 02:24:10;;;;;;;13.65;2.47;;;13.50;99.90;;;;;;5078112;28;20530;-90
2023/10/14 02:26:38;;;;;;;10.05;2.58;;;14.20;99.90;;;;;;5077045;28;20024;-91
2023/10/14 02:29:08;;;;;;;14.00;2.72;;;13.30;99.90;;;;;;5076953;28;20035;-90
2023/10/14 02:31:36;;;;;;;10.50;1.92;;;13.20;99.90;;;;;;5083441;28;20020;-91
2023/10/14 02:34:07;;;;;;;13.30;2.40;;;13.30;99.90;;;;;;5073408;28;20150;-92
2023/10/14 02:36:36;;;;;;;;;;;13.20;99.90;;;;;;5074843;28;20024;-91
2023/10/14 02:39:14;;;;;;;13.35;2.80;;;13.10;99.90;;;;;;5074164;28;20360;-90
2023/10/14 02:41:43;;;;;;;11.45;1.70;;;13.10;99.90;;;;;;5074171;28;20033;-91
2023/10/14 02:46:45;;;;;;;16.65;2.10;;;13.10;99.90;;;;;;5072674;28;20472;-89
2023/10/14 02:49:14;;;;;;;12.02;2.08;;;13.10;99.90;;;;;;5073842;28;20485;-92
2023/10/14 02:51:43;;;;;;;7.45;2.25;;;13.10;99.90;;;;;;5074656;28;20025;-92
2023/10/14 02:54:15;;;;;;;11.05;2.22;;;13.10;99.90;;;;;;5074221;28;20400;-92
2023/10/14 02:59:19;;;;;;;11.05;1.92;;;13.20;99.90;;;;;;5073758;28;20036;-92
2023/10/14 03:01:50;;;;;;;14.15;1.65;;;13.20;99.90;;;;;;5074397;28;20082;-92
2023/10/14 03:04:18;;;;;;;10.48;2.58;;;13.20;99.90;;;;;;5074400;28;20495;-91
2023/10/14 03:06:46;;;;;;;13.90;2.40;;;13.20;99.90;;;;;;5074446;28;20103;-91
2023/10/14 03:09:17;;;;;;;10.52;2.53;;;13.20;99.90;;;;;;5074893;28;20024;-92
2023/10/14 03:11:44;;;;;;;14.00;2.30;;;13.20;99.90;;;;;;5073426;28;20086;-92
2023/10/14 03:14:10;;;;;;;12.63;1.95;;;14.20;99.90;;;;;;5074587;28;20063;-92
2023/10/14 03:16:35;;;;;;;17.13;2.60;;;13.20;99.90;;;;;;5076162;28;20016;-94
2023/10/14 03:19:02;;;;;;;14.18;2.55;;;13.20;99.90;;;;;;5078299;28;20049;-93
2023/10/14 03:21:30;;;;;;;14.13;2.10;;;13.30;99.90;;;;;;5076866;28;20025;-92
2023/10/14 03:23:57;;;;;;;14.73;1.80;;;13.30;99.90;;;;;;5074734;28;20028;-93
2023/10/14 03:26:31;;;;;;;10.13;2.88;;;13.30;99.90;;;;;;5075920;28;20056;-93
2023/10/14 03:28:57;;;;;;;12.25;2.40;;;13.30;99.90;;;;;;5079265;28;20059;-92
2023/10/14 03:31:24;;;;;;;19.92;3.28;;;13.30;99.90;;;;;;5074739;28;20028;-92
2023/10/14 03:34:00;;;;;;;13.18;1.92;;;13.30;99.90;;;;;;5072854;28;20048;-93
2023/10/14 03:36:29;;;;;;;19.23;2.33;;;13.30;99.90;;;;;;5074263;28;20032;-92
2023/10/14 03:39:28;;;;;;;13.10;1.95;;;14.30;99.90;;;;;;5066160;28;20096;-92
2023/10/14 03:41:54;;;;;;;11.60;2.17;;;14.20;99.90;;;;;;5069636;28;20051;-90
2023/10/14 03:44:39;;;;;;;14.77;2.55;;;14.20;99.90;;;;;;5073360;28;20159;-90
2023/10/14 03:47:05;;;;;;;12.57;3.10;;;14.40;99.90;;;;;;5072639;28;20043;-91
2023/10/14 03:49:43;;;;;;;11.82;2.47;;;14.20;99.90;;;;;;5073049;28;20025;-90
2023/10/14 03:52:11;;;;;;;11.32;2.15;;;14.10;99.90;;;;;;5073531;28;20029;-91
2023/10/14 03:54:55;;;;;;;6.82;2.08;;;13.40;99.90;;;;;;5073328;28;20029;-91
2023/10/14 03:57:33;;;;;;;18.73;2.33;;;13.20;99.90;;;;;;5073537;28;20021;-90
2023/10/14 04:00:24;;;;;;;16.85;2.97;;;13.20;99.90;;;;;;5064726;28;20048;-90
2023/10/14 04:03:14;;;;;;;7.63;1.40;;;13.10;99.90;;;;;;5053131;28;20029;-91
2023/10/14 04:08:32;;;;;;;7.90;1.67;;;13.90;99.90;;;;;;5055575;28;20078;-91
2023/10/14 04:11:13;;;;;;;11.25;2.20;;;14.10;99.90;;;;;;5072589;28;20036;-91
2023/10/14 04:13:51;;;;;;;9.40;2.25;;;13.80;99.90;;;;;;5073052;28;20037;-90
2023/10/14 04:16:27;;;;;;;13.30;2.08;;;13.10;99.90;;;;;;5073515;28;20029;-90
2023/10/14 04:19:04;;;;;;;15.07;2.67;;;13.10;99.90;;;;;;5072658;28;20101;-91
2023/10/14 04:21:36;;;;;;;11.57;1.92;;;13.70;99.90;;;;;;5072733;28;20029;-91
2023/10/14 04:24:12;;;;;;;11.30;2.17;;;13.00;99.90;;;;;;5074284;28;20477;-91
2023/10/14 04:26:41;;;;;;;8.18;1.83;;;13.00;99.90;;;;;;5084093;28;20020;-91
2023/10/14 04:29:12;;;;;;;10.35;1.95;;;13.20;99.90;;;;;;5074835;28;20024;-90
2023/10/14 04:31:39;;;;;;;8.77;1.98;;;12.90;99.90;;;;;;5077213;28;20024;-92
2023/10/14 04:34:07;;;;;;;9.50;1.75;;;12.90;99.90;;;;;;5076200;28;20037;-91
2023/10/14 04:39:13;;;;;;;14.43;2.13;;;12.90;99.90;;;;;;5077125;28;20028;-91
2023/10/14 04:41:45;;;;;;;15.70;2.30;;;12.90;99.90;;;;;;5075191;28;20037;-92
2023/10/14 04:44:12;;;;;;;11.38;2.95;;;13.70;99.90;;;;;;5078759;28;20035;-91
2023/10/14 04:46:46;;;;;;;10.85;2.45;;;12.80;99.90;;;;;;5077929;28;20028;-91
2023/10/14 04:49:15;;;;;;;12.82;2.25;;;12.80;99.90;;;;;;5077343;28;20017;-91
2023/10/14 04:51:46;;;;;;;13.25;2.38;;;12.70;99.90;;;;;;5076747;28;20028;-91
2023/10/14 04:54:19;;;;;;;8.25;1.48;;;13.00;99.90;;;;;;5076888;28;20028;-92
2023/10/14 04:56:45;;;;;;;11.57;2.40;;;12.80;99.90;;;;;;5076549;28;20028;-93
2023/10/14 04:59:11;;;;;;;15.07;1.95;;;12.80;99.90;;;;;;5076653;28;20424;-91
2023/10/14 05:01:37;;;;;;;16.88;2.63;;;12.70;99.90;;;;;;5075152;28;20457;-93
2023/10/14 05:04:03;;;;;;;12.40;2.13;;;12.70;99.90;;;;;;5059035;28;20123;-92
2023/10/14 05:06:40;;;;;;;18.40;3.15;;;12.70;99.90;;;;;;5075293;28;20463;-91
2023/10/14 05:09:09;;;;;;;20.92;3.63;;;12.70;99.90;;;;;;5076900;28;20488;-91
2023/10/14 05:11:36;;;;;;;16.23;2.80;;;12.70;99.90;;;;;;5076403;28;20399;-91
2023/10/14 05:14:08;;;;;;;12.05;2.40;;;12.80;99.90;;;;;;5076178;28;20029;-91
2023/10/14 05:19:24;;;;;;;19.80;3.33;;;12.80;99.90;;;;;;5075194;28;20645;-90
2023/10/14 05:22:05;;;;;;;11.07;2.97;;;12.80;99.90;;;;;;5078451;28;20033;-91
2023/10/14 05:24:31;;;;;;;15.32;3.67;;;12.80;99.90;;;;;;5083609;28;20033;-92
2023/10/14 05:27:00;;;;;;;15.07;2.53;;;12.80;99.90;;;;;;5077327;28;20384;-89
2023/10/14 05:29:28;;;;;;;9.52;2.15;;;12.70;99.90;;;;;;5076453;28;20028;-87
2023/10/14 05:32:10;;;;;;;9.00;2.30;;;12.70;99.90;;;;;;5077633;28;20028;-88
2023/10/14 05:34:38;;;;;;;9.10;1.90;;;12.60;99.90;;;;;;5077364;28;20047;-91
2023/10/14 05:37:23;;;;;;;15.27;2.72;;;12.60;99.90;;;;;;5078419;28;20032;-89
2023/10/14 05:39:51;;;;;;;17.33;3.03;;;12.70;99.90;;;;;;5078419;28;20031;-90
2023/10/14 05:42:22;;;;;;;17.15;2.85;;;13.70;99.90;;;;;;5067278;28;20028;-90
2023/10/14 05:45:11;;;;;;;12.10;2.95;;;13.70;99.90;;;;;;5075001;28;20024;-90
2023/10/14 05:47:53;;;;;;;15.15;3.28;;;12.50;99.90;;;;;;5075141;28;20061;-89
2023/10/14 05:50:19;;;;;;;11.88;2.60;;;13.30;99.90;;;;;;5075337;28;20029;-90
2023/10/14 05:53:07;;;;;;;10.05;2.53;;;13.40;99.90;;;;;;5074655;28;20376;-91
2023/10/14 05:55:39;;;;;;;18.52;3.90;;;12.60;99.90;;;;;;5074171;28;20095;-91
2023/10/14 05:58:27;;;;;;;10.23;2.35;;;13.50;99.90;;;;;;5074399;28;20025;-90
2023/10/14 06:00:54;;;;;;;16.08;2.88;;;12.60;99.90;;;;;;5073894;28;20065;-89
2023/10/14 06:03:37;;;;;;;17.65;3.38;;;12.60;99.90;;;;;;5073977;28;20043;-91
2023/10/14 06:06:09;;;;;;;10.75;2.58;;;12.80;99.90;;;;;;5074286;28;20085;-90
2023/10/14 06:08:46;;;;;;;16.48;2.97;;;12.70;99.90;;;;;;5064784;28;20029;-89
2023/10/14 06:11:13;;;;;;;11.13;2.20;;;13.70;99.90;;;;;;5074311;28;20028;-89
2023/10/14 06:13:39;;;;;;;16.10;3.55;;;13.80;99.90;;;;;;5074944;28;20026;-90
2023/10/14 06:16:17;;;;;;;9.52;2.15;;;13.70;99.90;;;;;;5075040;28;20032;-90
2023/10/14 06:19:00;;;;;;;13.27;2.92;;;13.10;99.90;;;;;;5091566;28;20082;-89
2023/10/14 06:21:27;;;;;;;14.88;2.67;;;13.80;99.90;;;;;;5094640;28;20068;-89
2023/10/14 06:24:10;;;;;;;15.20;3.00;;;13.50;99.90;;;;;;5075099;28;20029;-89
2023/10/14 06:26:36;;;;;;;16.98;3.97;;;12.60;99.90;;;;;;5074380;28;20035;-89
2023/10/14 06:29:13;;;;;;;14.07;2.58;;;13.70;99.90;;;;;;5075752;28;20107;-90
2023/10/14 06:31:40;;;;;;;13.55;2.97;;;12.70;99.90;;;;;;5076043;28;20036;-90
2023/10/14 06:34:31;;;;;;;11.48;2.40;;;14.20;99.90;;;;;;5075885;28;20021;-89
2023/10/14 06:37:01;;;;;;;17.35;3.33;;;12.70;99.90;;;;;;5074699;28;20032;-87
2023/10/14 06:39:40;;;;;;;8.27;2.20;;;12.80;99.90;;;;;;5065802;28;20024;-89
2023/10/14 06:42:27;;;;;;;9.90;2.55;;;12.60;99.90;;;;;;5073666;28;20119;-89
2023/10/14 06:44:52;;;;;;;13.55;2.33;;;13.60;99.90;;;;;;5066628;28;20063;-89
2023/10/14 06:47:37;;;;;;;18.80;3.28;;;12.90;99.90;;;;;;5073562;28;20464;-91
2023/10/14 06:50:25;;;;;;;26.05;3.75;;;12.60;99.90;;;;;;5073175;28;20060;-89
2023/10/14 06:53:09;;;;;;;17.30;2.60;;;12.50;99.90;;;;;;5073403;28;20024;-88
2023/10/14 06:58:27;;;;;;;10.43;2.15;;;13.30;99.90;;;;;;5073594;28;20086;-89
2023/10/14 07:01:11;;;;;;;14.43;2.88;;;12.20;99.90;;;;;;5073465;28;20379;-88
2023/10/14 07:03:36;;;;;;;11.90;2.83;;;13.60;99.90;;;;;;5073161;28;20024;-89
2023/10/14 07:06:23;;;;;;;10.63;2.53;;;13.70;99.90;;;;;;5073737;28;20066;-88
2023/10/14 07:08:50;;;;;;;19.67;3.25;;;12.80;99.90;;;;;;5073549;28;20165;-90
2023/10/14 07:11:34;;;;;;;12.43;2.97;;;13.80;99.90;;;;;;5064367;28;20082;-89
2023/10/14 07:13:59;;;;;;;14.13;2.35;;;12.90;99.90;;;;;;5073452;28;20037;-89
2023/10/14 07:16:46;;;;;;;8.90;2.35;;;13.50;99.90;;;;;;5073025;28;20032;-91
2023/10/14 07:19:12;;;;;;;17.25;3.08;;;13.70;99.90;;;;;;5077341;28;20078;-90
2023/10/14 07:21:46;;;;;;;12.77;2.85;;;13.40;99.90;;;;;;5073339;28;20025;-89
2023/10/14 07:24:14;;;;;;;15.93;2.45;;;13.70;99.90;;;;;;5073804;28;20033;-89
2023/10/14 07:27:00;;;;;;;21.40;2.92;;;14.10;99.90;;;;;;5072157;28;20448;-88
2023/10/14 07:29:27;;;;;;;19.13;3.45;;;12.90;99.90;;;;;;5073327;28;20024;-89
2023/10/14 07:32:07;;;;;;;24.05;2.83;;;13.90;99.90;;;;;;5072994;28;20107;-88
2023/10/14 07:34:32;;;;;;;18.48;3.03;;;13.00;99.90;;;;;;5071961;28;20016;-89
2023/10/14 07:37:17;;;;;;;16.33;2.72;;;14.00;99.90;;;;;;5072703;28;20025;-88
2023/10/14 07:40:04;;;;;;;15.13;3.17;;;12.90;99.90;;;;;;5073175;28;20029;-88
2023/10/14 07:42:42;;;;;;;11.68;3.22;;;12.90;99.90;;;;;;5073251;28;20025;-90
2023/10/14 07:45:28;;;;;;;12.73;2.58;;;13.90;99.90;;;;;;5072566;28;20040;-89
2023/10/14 07:48:13;;;;;;;16.60;3.55;;;13.80;99.90;;;;;;5072967;28;20108;-90
2023/10/14 07:50:39;;;;;;;12.48;2.75;;;14.30;99.90;;;;;;5072879;28;20024;-91
2023/10/14 07:53:24;;;;;;;13.65;3.15;;;13.80;99.90;;;;;;5073268;28;20063;-89
2023/10/14 07:56:06;;;;;;;15.35;3.10;;;13.00;99.90;;;;;;5067354;28;20012;-90
2023/10/14 07:58:32;;;;;;;17.40;2.95;;;14.50;99.90;;;;;;5072098;28;20462;-86
2023/10/14 08:00:58;;;;;;;10.07;2.42;;;13.00;99.90;;;;;;5083555;28;20024;-89
2023/10/14 08:03:38;;;;;;;14.00;2.95;;;14.00;99.90;;;;;;5090939;28;20119;-89
2023/10/14 08:06:08;;;;;;;11.13;2.78;;;14.00;99.90;;;;;;5090470;28;20439;-90
2023/10/14 08:08:42;;;;;;;16.55;2.75;;;14.10;99.90;;;;;;5081975;28;20063;-90
2023/10/14 08:11:08;;;;;;;10.43;2.92;;;13.90;99.90;;;;;;5053282;28;20033;-90
2023/10/14 08:13:33;;;;;;;19.27;3.58;;;13.80;99.90;;;;;;5077308;28;20054;-87
2023/10/14 08:16:00;;;;;;;17.00;2.60;;;13.50;99.90;;;;;;5081763;28;20025;-89
2023/10/14 08:18:25;;;;;;;17.00;3.33;;;13.10;99.90;;;;;;5078400;28;20473;-93
2023/10/14 08:21:03;;;;;;;17.20;3.33;;;13.70;99.90;;;;;;5071660;28;20052;-90
2023/10/14 08:23:29;;;;;;;16.35;3.08;;;13.70;99.90;;;;;;5075722;28;20530;-88
2023/10/14 08:26:13;;;;;;;18.35;3.05;;;13.20;99.90;;;;;;5076771;28;20048;-86
2023/10/14 08:29:01;;;;;;;7.80;1.80;;;14.10;99.90;;;;;;5075048;28;20099;-89
2023/10/14 08:31:27;;;;;;;15.52;2.90;;;13.30;99.90;;;;;;5073878;28;20067;-86
2023/10/14 08:33:52;;;;;;;15.07;2.83;;;13.30;99.90;;;;;;5075827;28;20125;-90
2023/10/14 08:36:29;;;;;;;18.50;3.17;;;13.30;99.90;;;;;;5075576;28;20056;-86
2023/10/14 08:38:54;;;;;;;18.27;3.25;;;14.40;99.90;;;;;;5072624;28;20028;-93
2023/10/14 08:41:33;;;;;;;12.30;2.53;;;14.70;99.90;;;;;;5080573;28;20039;-89
2023/10/14 08:44:12;;;;;;;12.57;2.20;;;14.60;99.90;;;;;;5089413;28;20017;-92
2023/10/14 08:46:57;;;;;;;13.65;3.08;;;14.50;99.90;;;;;;5086950;28;20025;-91
2023/10/14 08:49:26;;;;;;;17.50;3.33;;;13.40;99.90;;;;;;5079076;28;20024;-91
2023/10/14 08:52:20;;;;;;;19.83;3.13;;;13.90;99.90;;;;;;5026370;28;20036;-91
2023/10/14 08:54:52;;;;;;;19.85;2.67;;;13.40;99.90;;;;;;5077684;28;20020;-88
2023/10/14 08:57:18;;;;;;;12.27;2.70;;;14.70;99.90;;;;;;5076902;28;20111;-90
2023/10/14 08:59:56;;;;;;;9.70;2.25;;;14.70;99.90;;;;;;5075934;28;20055;-91
2023/10/14 09:02:22;;;;;;;13.60;2.60;;;14.80;99.90;;;;;;5078986;28;20025;-90
2023/10/14 09:04:48;;;;;;;11.90;2.17;;;14.50;99.90;;;;;;5074117;28;20476;-90
2023/10/14 09:07:14;;;;;;;22.77;3.05;;;13.50;99.90;;;;;;5076329;28;20078;-90
2023/10/14 09:09:56;;;;;;;13.98;3.00;;;13.50;99.90;;;;;;5077642;28;20025;-91
2023/10/14 09:12:21;;;;;;;13.52;2.80;;;13.50;99.90;;;;;;5077695;28;20024;-90
2023/10/14 09:14:50;;;;;;;17.80;2.63;;;14.90;99.90;;;;;;5081130;28;20353;-91
2023/10/14 09:17:31;;;;;;;17.92;4.15;;;13.60;99.90;;;;;;5076863;28;20075;-90
2023/10/14 09:19:57;;;;;;;15.30;2.80;;;14.90;99.90;;;;;;5075342;28;20049;-91
2023/10/14 09:22:40;;;;;;;10.80;2.38;;;13.60;99.90;;;;;;5075155;28;20093;-91
2023/10/14 09:25:06;;;;;;;12.52;2.03;;;14.80;99.90;;;;;;5075862;28;20045;-91
2023/10/14 09:27:31;;;;;;;11.85;2.95;;;13.60;99.90;;;;;;5077104;28;20073;-93
2023/10/14 09:29:57;;;;;;;11.88;2.72;;;14.30;99.90;;;;;;5079227;28;20079;-92
2023/10/14 09:32:27;;;;;;;17.75;2.45;;;14.50;99.90;;;;;;5078845;28;20025;-91
2023/10/14 09:34:55;;;;;;;11.13;2.70;;;13.80;99.90;;;;;;5069577;28;20039;-90
2023/10/14 09:37:22;;;;;;;15.27;3.05;;;14.90;99.90;;;;;;5072166;28;20040;-85
2023/10/14 09:39:57;;;;;;;14.18;2.45;;;13.10;99.90;;;;;;5072884;28;20036;-86
2023/10/14 09:42:48;;;;;;;19.40;3.42;;;15.00;99.90;;;;;;5074329;28;20147;-89
2023/10/14 09:45:18;;;;;;;18.02;2.92;;;14.90;99.90;;;;;;5074161;28;20115;-93
2023/10/14 09:47:57;;;;;;;12.35;2.65;;;14.20;99.90;;;;;;5072366;28;20032;-92
2023/10/14 09:50:23;;;;;;;13.02;2.10;;;15.00;99.90;;;;;;5068701;28;20052;-90
2023/10/14 09:52:52;;;;;;;14.07;2.58;;;15.00;99.90;;;;;;5075865;28;20492;-91
2023/10/14 09:55:20;;;;;;;17.90;2.40;;;14.60;99.90;;;;;;5077737;28;20048;-93
2023/10/14 09:57:47;;;;;;;12.15;2.60;;;15.00;99.90;;;;;;5081337;28;20076;-90
2023/10/14 10:00:16;;;;;;;12.55;2.88;;;13.60;99.90;;;;;;5063533;28;20410;-84
2023/10/14 10:02:44;;;;;;;14.23;3.33;;;13.70;99.90;;;;;;5069977;28;20121;-85
2023/10/14 10:05:17;;;;;;;11.75;2.13;;;13.70;99.90;;;;;;5071616;28;20028;-85
2023/10/14 10:08:07;;;;;;;10.10;3.15;;;13.70;99.90;;;;;;5065980;28;20039;-85
2023/10/14 10:10:33;;;;;;;12.48;2.58;;;14.60;99.90;;;;;;5071740;28;20024;-87
2023/10/14 10:13:00;;;;;;;9.52;2.28;;;13.70;99.90;;;;;;5072855;28;20036;-91
2023/10/14 10:15:25;;;;;;;10.95;2.22;;;14.70;99.90;;;;;;5074828;28;20028;-91
2023/10/14 10:18:05;;;;;;;11.52;3.33;;;13.80;99.90;;;;;;5074021;28;20024;-87
2023/10/14 10:20:36;;;;;;;14.60;2.60;;;13.80;99.90;;;;;;5071820;28;20037;-92
2023/10/14 10:23:02;;;;;;;18.85;2.47;;;15.00;99.90;;;;;;5074196;28;20020;-91
2023/10/14 10:25:37;;;;;;;8.18;1.67;;;13.90;99.90;;;;;;5076711;28;20037;-92
2023/10/14 10:28:46;;;;;;;10.20;2.50;;;15.10;99.90;;;;;;5075022;28;20032;-92
2023/10/14 10:31:27;;;;;;;14.73;2.08;;;14.00;99.90;;;;;;5073927;28;20025;-89
2023/10/14 10:33:58;;;;;;;7.72;2.58;;;13.90;99.90;;;;;;5070173;28;20520;-81
2023/10/14 10:36:32;;;;;;;15.07;2.42;;;14.00;99.90;;;;;;5069575;28;20770;-84
2023/10/14 10:39:17;;;;;;;10.55;2.53;;;14.00;99.90;;;;;;5065551;28;20024;-82
2023/10/14 10:41:43;;;;;;;10.05;2.88;;;14.00;99.90;;;;;;5067023;28;20032;-82
2023/10/14 10:44:11;;;;;;;9.75;2.30;;;14.20;99.90;;;;;;5069190;28;20028;-84
2023/10/14 10:46:38;;;;;;;7.22;1.70;;;14.00;99.90;;;;;;5072105;28;20032;-86
2023/10/14 10:49:10;;;;;;;13.93;2.05;;;14.00;99.90;;;;;;5066101;28;20503;-86
2023/10/14 10:51:41;;;;;;;11.55;1.80;;;14.00;99.90;;;;;;5067268;28;20040;-87
2023/10/14 10:54:10;;;;;;;12.77;2.20;;;14.00;99.90;;;;;;5070203;28;20105;-86
2023/10/14 10:56:35;;;;;;;9.30;1.98;;;14.00;99.90;;;;;;5063775;28;20036;-84
2023/10/14 10:59:04;;;;;;;11.25;2.40;;;14.00;99.90;;;;;;5068189;28;20464;-85
2023/10/14 11:01:31;;;;;;;10.50;2.22;;;14.00;99.90;;;;;;5068545;28;20036;-83
2023/10/14 11:03:58;;;;;;;6.00;1.75;;;14.00;99.90;;;;;;5068665;28;20086;-82
2023/10/14 11:06:25;;;;;;;8.95;1.88;;;14.00;99.90;;;;;;5068185;28;20034;-81
2023/10/14 11:08:51;;;;;;;14.75;2.20;;;14.00;99.90;;;;;;5069627;28;20032;-82
2023/10/14 11:11:17;;;;;;;10.85;2.35;;;14.00;99.90;;;;;;5068334;28;20031;-85
2023/10/14 11:13:43;;;;;;;7.20;1.88;;;14.00;99.90;;;;;;5069945;28;20480;-86
2023/10/14 11:16:12;;;;;;;7.68;1.75;;;14.00;99.90;;;;;;5066820;28;20028;-87
2023/10/14 11:18:46;;;;;;;9.23;2.35;;;14.20;99.90;;;;;;5069318;28;20344;-88
2023/10/14 11:21:12;;;;;;;16.23;2.20;;;14.20;99.90;;;;;;5070583;28;20123;-86
2023/10/14 11:23:39;;;;;;;9.63;1.95;;;14.30;99.90;;;;;;5065458;28;20029;-87
2023/10/14 11:26:15;;;;;;;10.15;2.50;;;14.20;99.90;;;;;;5066550;28;20456;-86
2023/10/14 11:28:45;;;;;;;11.63;2.47;;;14.20;99.90;;;;;;5064664;28;20024;-87
2023/10/14 11:31:14;;;;;;;9.80;1.75;;;14.20;99.90;;;;;;5070509;28;20388;-86
2023/10/14 11:33:44;;;;;;;10.63;2.42;;;14.20;99.90;;;;;;5064964;28;20025;-86
2023/10/14 11:36:17;;;;;;;8.18;1.75;;;14.20;99.90;;;;;;5066202;28;20136;-87
2023/10/14 11:38:44;;;;;;;9.38;2.05;;;14.10;99.90;;;;;;5069149;28;20028;-88
2023/10/14 11:41:12;;;;;;;10.57;1.92;;;14.10;99.90;;;;;;5070118;28;20439;-84
2023/10/14 11:43:42;;;;;;;10.45;1.50;;;14.00;99.90;;;;;;5076946;28;20033;-93
2023/10/14 11:46:08;;;;;;;9.32;1.80;;;14.00;99.90;;;;;;5082238;28;20089;-91
2023/10/14 11:48:34;;;;;;;10.50;1.80;;;14.00;99.90;;;;;;5081308;28;20020;-90
2023/10/14 11:51:02;;;;;;;9.80;1.80;;;14.10;99.90;;;;;;5081903;28;20091;-92
2023/10/14 11:53:29;;;;;;;9.65;1.75;;;14.10;99.90;;;;;;5067159;28;20032;-91
2023/10/14 11:56:18;;;;;;;7.45;1.70;;;15.30;99.90;;;;;;5078558;28;20029;-91
2023/10/14 11:58:49;;;;;;;8.27;1.70;;;14.10;99.90;;;;;;5082697;28;20025;-91
2023/10/14 12:01:15;;;;;;;7.47;2.00;;;14.10;99.90;;;;;;5067709;28;20047;-90
2023/10/14 12:03:43;;;;;;;7.80;2.00;;;15.30;99.90;;;;;;5077802;28;20433;-91
2023/10/14 12:06:12;;;;;;;8.20;2.05;;;13.90;99.90;;;;;;5080214;28;20082;-92
2023/10/14 12:08:38;;;;;;;10.05;2.63;;;14.50;99.90;;;;;;5074171;28;20028;-91
2023/10/14 12:11:08;;;;;;;6.50;1.73;;;14.40;99.90;;;;;;5082399;28;20025;-91
2023/10/14 12:13:35;;;;;;;9.30;1.52;;;13.90;99.90;;;;;;5075847;28;20094;-91
2023/10/14 12:16:05;;;;;;;9.65;1.67;;;14.50;99.90;;;;;;5071113;28;20028;-92
2023/10/14 12:18:37;;;;;;;7.20;2.05;;;15.10;99.90;;;;;;5073684;28;20040;-93
2023/10/14 12:21:03;;;;;;;8.75;1.98;;;14.10;99.90;;;;;;5075508;28;20088;-93
2023/10/14 12:23:31;;;;;;;11.00;1.58;;;14.10;99.90;;;;;;5082347;28;20112;-94
2023/10/14 12:26:01;;;;;;;5.20;1.75;;;14.10;99.90;;;;;;5076435;28;20515;-93
2023/10/14 12:28:30;;;;;;;6.60;1.27;;;15.40;99.90;;;;;;5082124;28;20312;-93
2023/10/14 12:31:03;;;;;;;5.63;0.90;;;14.90;99.90;;;;;;5073160;28;20461;-92
2023/10/14 12:33:35;;;;;;;9.55;2.03;;;13.80;99.90;;;;;;5077334;28;20081;-91
2023/10/14 12:36:10;;;;;;;7.25;1.70;;;14.90;99.90;;;;;;5094249;28;20112;-92
2023/10/14 12:38:37;;;;;;;3.30;1.02;;;14.20;99.90;;;;;;5090454;28;20120;-91
2023/10/14 12:41:26;;;;;;;6.30;1.80;;;15.40;99.90;;;;;;5080951;28;20040;-93
2023/10/14 12:43:51;;;;;;;9.13;2.15;;;13.80;99.90;;;;;;5084623;28;20044;-93
2023/10/14 12:48:50;;;;;;;15.60;2.25;;;14.00;99.90;;;;;;5075165;28;20021;-93
2023/10/14 12:51:25;;;;;;;7.60;1.45;;;14.40;99.90;;;;;;5074093;28;20028;-94
2023/10/14 12:54:16;;;;;;;18.80;2.75;;;15.30;99.90;;;;;;5081142;28;20025;-91
2023/10/14 12:56:40;;;;;;;3.63;1.55;;;14.00;99.90;;;;;;5068114;28;20064;-93
2023/10/14 12:59:18;;;;;;;6.20;2.30;;;14.40;99.90;;;;;;5076599;28;20016;-94
2023/10/14 13:01:46;;;;;;;5.97;1.60;;;14.10;99.90;;;;;;5073419;28;20025;-93
2023/10/14 13:04:19;;;;;;;8.13;1.80;;;14.40;99.90;;;;;;5089690;28;20016;-94
2023/10/14 13:06:49;;;;;;;8.77;2.08;;;14.30;99.90;;;;;;5084656;28;20043;-94
2023/10/14 13:09:19;;;;;;;10.02;2.38;;;14.60;99.90;;;;;;5077712;28;20033;-94
2023/10/14 13:11:55;;;;;;;7.72;1.75;;;15.00;99.90;;;;;;5078896;28;20033;-94
2023/10/14 13:14:27;;;;;;;10.68;1.45;;;15.40;99.90;;;;;;5074342;28;20487;-92
2023/10/14 13:16:55;;;;;;;7.32;1.83;;;14.10;99.90;;;;;;5066689;28;20036;-88
2023/10/14 13:22:14;;;;;;;8.10;2.33;;;13.80;99.90;;;;;;5007344;28;20056;-90
2023/10/14 13:24:40;;;;;;;13.35;2.20;;;15.10;99.90;;;;;;5012672;28;20042;-93
2023/10/14 13:27:06;;;;;;;10.32;1.83;;;13.90;99.90;;;;;;5073926;22;20060;-93
2023/10/14 13:29:32;;;;;;;8.55;2.42;;;14.70;99.90;;;;;;5045730;28;20029;-90
2023/10/14 13:31:59;;;;;;;6.75;2.25;;;13.80;99.90;;;;;;5040011;28;20029;-89
2023/10/14 13:34:24;;;;;;;12.48;2.13;;;14.00;99.90;;;;;;5041612;28;20083;-88
2023/10/14 13:36:50;;;;;;;9.43;2.10;;;13.90;99.90;;;;;;5033995;28;20092;-87